SJX742 VTBS-RCTP
Flight info
| Callsign | SJX742 |
|---|---|
| Flight time | 2h 59m |
| Altitude | 39000 |
| Route | LIPLI1J LIPLI Y16 BUTRA A1 PAPRA/K0904F390 A1 IKELA/N0487F390 DCT MORTU DCT NOBAD DCT KAPLI G86 ANDRE A577 TNN TNN1A |
| Aircraft | A35K/H-V/N |
Departure
| Time | 2026-04-30 05:39 |
|---|---|
| Airport | Suvarnabhumi Airport (VTBS) |
Arrival
| Time | 2026-04-30 08:39 |
|---|---|
| Airport | Taiwan Taoyuan International Airport (RCTP) |
| Time | Latitude | Longitude | Altitude | Speed | Heading |
|---|---|---|---|---|---|
| 2026-04-30 05:29 | 13.68351 | 100.74717 | 19 ft | 0 kts | 190° |
| 2026-04-30 05:30 | 13.68359 | 100.74718 | 20 ft | 4 kts | 189° |
| 2026-04-30 05:30 | 13.68384 | 100.74723 | 21 ft | 4 kts | 192° |
| 2026-04-30 05:30 | 13.68407 | 100.74727 | 23 ft | 4 kts | 185° |
| 2026-04-30 05:31 | 13.68430 | 100.74729 | 22 ft | 2 kts | 182° |
| 2026-04-30 05:31 | 13.68446 | 100.74727 | 23 ft | 2 kts | 123° |
| 2026-04-30 05:31 | 13.68451 | 100.74717 | 22 ft | 2 kts | 99° |
| 2026-04-30 05:31 | 13.68452 | 100.74713 | 22 ft | 0 kts | 109° |
| 2026-04-30 05:33 | 13.68450 | 100.74719 | 21 ft | 5 kts | 109° |
| 2026-04-30 05:33 | 13.68432 | 100.74790 | 19 ft | 15 kts | 104° |
| 2026-04-30 05:33 | 13.68405 | 100.74898 | 19 ft | 16 kts | 104° |
| 2026-04-30 05:34 | 13.68376 | 100.75017 | 19 ft | 18 kts | 104° |
| 2026-04-30 05:34 | 13.68343 | 100.75149 | 19 ft | 20 kts | 104° |
| 2026-04-30 05:34 | 13.68307 | 100.75291 | 19 ft | 21 kts | 104° |
| 2026-04-30 05:34 | 13.68268 | 100.75445 | 19 ft | 23 kts | 104° |
| 2026-04-30 05:35 | 13.68253 | 100.75559 | 19 ft | 5 kts | 65° |
| 2026-04-30 05:35 | 13.68298 | 100.75581 | 19 ft | 10 kts | 15° |
| 2026-04-30 05:35 | 13.68376 | 100.75604 | 19 ft | 13 kts | 15° |
| 2026-04-30 05:35 | 13.68472 | 100.75629 | 19 ft | 18 kts | 13° |
| 2026-04-30 05:36 | 13.68620 | 100.75666 | 19 ft | 24 kts | 15° |
| 2026-04-30 05:36 | 13.68785 | 100.75709 | 19 ft | 25 kts | 14° |
| 2026-04-30 05:36 | 13.68958 | 100.75755 | 19 ft | 27 kts | 14° |
| 2026-04-30 05:36 | 13.69143 | 100.75804 | 19 ft | 28 kts | 14° |
| 2026-04-30 05:37 | 13.69255 | 100.75837 | 19 ft | 0 kts | 29° |
| 2026-04-30 05:37 | 13.69254 | 100.75856 | 19 ft | 3 kts | 108° |
| 2026-04-30 05:37 | 13.69225 | 100.75902 | 19 ft | 12 kts | 119° |
| 2026-04-30 05:37 | 13.69211 | 100.75949 | 19 ft | 10 kts | 105° |
| 2026-04-30 05:38 | 13.69207 | 100.75961 | 19 ft | 2 kts | 105° |
| 2026-04-30 05:38 | 13.69196 | 100.76005 | 18 ft | 14 kts | 105° |
| 2026-04-30 05:38 | 13.69146 | 100.76081 | 18 ft | 11 kts | 152° |
| 2026-04-30 05:38 | 13.69063 | 100.76075 | 18 ft | 15 kts | 192° |
| 2026-04-30 05:39 | 13.68768 | 100.75998 | 21 ft | 79 kts | 195° |
| 2026-04-30 05:39 | 13.67674 | 100.75711 | 17 ft | 161 kts | 194° |
| 2026-04-30 05:39 | 13.66890 | 100.75501 | 147 ft | 185 kts | 194° |
| 2026-04-30 05:39 | 13.65579 | 100.75153 | 641 ft | 205 kts | 194° |
| 2026-04-30 05:40 | 13.64139 | 100.74994 | 1323 ft | 212 kts | 179° |
| 2026-04-30 05:40 | 13.62632 | 100.75070 | 2050 ft | 222 kts | 175° |
| 2026-04-30 05:40 | 13.61087 | 100.75342 | 2728 ft | 231 kts | 159° |
| 2026-04-30 05:40 | 13.59833 | 100.76384 | 3488 ft | 240 kts | 126° |
| 2026-04-30 05:41 | 13.59025 | 100.77911 | 4348 ft | 252 kts | 115° |
| 2026-04-30 05:41 | 13.58262 | 100.79550 | 5278 ft | 257 kts | 116° |
| 2026-04-30 05:41 | 13.57510 | 100.81243 | 6058 ft | 265 kts | 111° |
| 2026-04-30 05:41 | 13.57214 | 100.83132 | 6768 ft | 271 kts | 93° |
| 2026-04-30 05:42 | 13.57224 | 100.85082 | 7525 ft | 275 kts | 90° |
| 2026-04-30 05:42 | 13.57251 | 100.87064 | 8256 ft | 280 kts | 91° |
| 2026-04-30 05:42 | 13.57259 | 100.89077 | 8966 ft | 284 kts | 91° |
| 2026-04-30 05:42 | 13.57255 | 100.91125 | 9683 ft | 288 kts | 91° |
| 2026-04-30 05:43 | 13.57245 | 100.93204 | 10262 ft | 295 kts | 92° |
| 2026-04-30 05:43 | 13.57229 | 100.95376 | 10564 ft | 312 kts | 92° |
| 2026-04-30 05:43 | 13.57211 | 100.97646 | 10846 ft | 329 kts | 92° |
| 2026-04-30 05:43 | 13.57212 | 101.00053 | 11129 ft | 345 kts | 90° |
| 2026-04-30 05:44 | 13.57513 | 101.02558 | 11375 ft | 362 kts | 78° |
| 2026-04-30 05:44 | 13.58422 | 101.05020 | 11599 ft | 376 kts | 64° |
| 2026-04-30 05:44 | 13.59831 | 101.07322 | 11924 ft | 384 kts | 57° |
| 2026-04-30 05:44 | 13.61356 | 101.09598 | 12315 ft | 389 kts | 57° |
| 2026-04-30 05:45 | 13.62885 | 101.11907 | 12721 ft | 393 kts | 57° |
| 2026-04-30 05:45 | 13.64420 | 101.14251 | 13129 ft | 396 kts | 57° |
| 2026-04-30 05:45 | 13.65960 | 101.16619 | 13552 ft | 399 kts | 57° |
| 2026-04-30 05:45 | 13.67510 | 101.19007 | 13959 ft | 402 kts | 57° |
| 2026-04-30 05:46 | 13.69065 | 101.21409 | 14327 ft | 405 kts | 57° |
| 2026-04-30 05:46 | 13.70614 | 101.23803 | 14705 ft | 408 kts | 57° |
| 2026-04-30 05:46 | 13.72194 | 101.26247 | 15088 ft | 411 kts | 57° |
| 2026-04-30 05:46 | 13.73780 | 101.28701 | 15460 ft | 414 kts | 57° |
| 2026-04-30 05:47 | 13.75379 | 101.31176 | 15849 ft | 417 kts | 57° |
| 2026-04-30 05:47 | 13.76991 | 101.33672 | 16252 ft | 419 kts | 57° |
| 2026-04-30 05:47 | 13.78609 | 101.36179 | 16664 ft | 422 kts | 57° |
| 2026-04-30 05:47 | 13.80236 | 101.38700 | 17048 ft | 424 kts | 57° |
| 2026-04-30 05:48 | 13.81857 | 101.41213 | 17447 ft | 427 kts | 57° |
| 2026-04-30 05:48 | 13.83505 | 101.43768 | 17827 ft | 430 kts | 56° |
| 2026-04-30 05:48 | 13.85163 | 101.46340 | 18201 ft | 433 kts | 56° |
| 2026-04-30 05:48 | 13.86831 | 101.48928 | 18531 ft | 435 kts | 56° |
| 2026-04-30 05:49 | 13.88508 | 101.51529 | 18882 ft | 437 kts | 56° |
| 2026-04-30 05:49 | 13.90190 | 101.54140 | 19224 ft | 439 kts | 56° |
| 2026-04-30 05:49 | 13.91881 | 101.56768 | 19578 ft | 441 kts | 56° |
| 2026-04-30 05:49 | 13.93580 | 101.59406 | 19911 ft | 443 kts | 56° |
| 2026-04-30 05:50 | 13.95286 | 101.62058 | 20249 ft | 445 kts | 56° |
| 2026-04-30 05:50 | 13.96998 | 101.64719 | 20574 ft | 447 kts | 56° |
| 2026-04-30 05:50 | 13.98718 | 101.67393 | 20902 ft | 449 kts | 56° |
| 2026-04-30 05:50 | 14.00446 | 101.70082 | 21228 ft | 451 kts | 56° |
| 2026-04-30 05:51 | 14.02183 | 101.72784 | 21548 ft | 453 kts | 56° |
| 2026-04-30 05:51 | 14.03924 | 101.75493 | 21865 ft | 455 kts | 56° |
| 2026-04-30 05:51 | 14.05677 | 101.78223 | 22194 ft | 457 kts | 56° |
| 2026-04-30 05:51 | 14.07435 | 101.80961 | 22501 ft | 459 kts | 56° |
| 2026-04-30 05:52 | 14.09197 | 101.83706 | 22815 ft | 461 kts | 56° |
| 2026-04-30 05:52 | 14.10975 | 101.86477 | 23111 ft | 463 kts | 56° |
| 2026-04-30 05:52 | 14.12758 | 101.89257 | 23416 ft | 465 kts | 56° |
| 2026-04-30 05:52 | 14.14521 | 101.92006 | 23665 ft | 467 kts | 56° |
| 2026-04-30 05:53 | 14.16295 | 101.94835 | 23887 ft | 470 kts | 58° |
| 2026-04-30 05:53 | 14.17792 | 101.97838 | 24114 ft | 473 kts | 66° |
| 2026-04-30 05:53 | 14.18964 | 102.01018 | 24361 ft | 475 kts | 70° |
| 2026-04-30 05:53 | 14.20020 | 102.04248 | 24595 ft | 477 kts | 71° |
| 2026-04-30 05:54 | 14.21028 | 102.07514 | 24820 ft | 479 kts | 72° |
| 2026-04-30 05:54 | 14.22023 | 102.10794 | 25052 ft | 481 kts | 72° |
| 2026-04-30 05:54 | 14.23028 | 102.14096 | 25271 ft | 483 kts | 72° |
| 2026-04-30 05:54 | 14.24047 | 102.17404 | 25507 ft | 485 kts | 72° |
| 2026-04-30 05:55 | 14.25081 | 102.20720 | 25744 ft | 487 kts | 71° |
| 2026-04-30 05:55 | 14.26129 | 102.24056 | 25980 ft | 488 kts | 71° |
| 2026-04-30 05:55 | 14.27168 | 102.27351 | 26207 ft | 490 kts | 71° |
| 2026-04-30 05:55 | 14.28226 | 102.30698 | 26437 ft | 492 kts | 71° |
| 2026-04-30 05:56 | 14.29289 | 102.34063 | 26677 ft | 494 kts | 71° |
| 2026-04-30 05:56 | 14.30354 | 102.37439 | 26898 ft | 496 kts | 71° |
| 2026-04-30 05:56 | 14.31424 | 102.40831 | 27133 ft | 498 kts | 71° |
| 2026-04-30 05:56 | 14.32494 | 102.44230 | 27379 ft | 500 kts | 72° |
| 2026-04-30 05:57 | 14.33571 | 102.47654 | 27609 ft | 502 kts | 72° |
| 2026-04-30 05:57 | 14.34651 | 102.51091 | 27838 ft | 504 kts | 72° |
| 2026-04-30 05:57 | 14.35731 | 102.54533 | 28061 ft | 506 kts | 72° |
| 2026-04-30 05:57 | 14.36820 | 102.58001 | 28306 ft | 508 kts | 72° |
| 2026-04-30 05:58 | 14.37907 | 102.61465 | 28529 ft | 510 kts | 72° |
| 2026-04-30 05:58 | 14.39042 | 102.64893 | 28757 ft | 511 kts | 70° |
| 2026-04-30 05:58 | 14.40283 | 102.68345 | 28988 ft | 513 kts | 69° |
| 2026-04-30 05:58 | 14.41567 | 102.71789 | 29196 ft | 515 kts | 69° |
| 2026-04-30 05:59 | 14.42862 | 102.75243 | 29431 ft | 517 kts | 69° |
| 2026-04-30 05:59 | 14.44154 | 102.78716 | 29651 ft | 519 kts | 69° |
| 2026-04-30 05:59 | 14.45435 | 102.82202 | 29871 ft | 521 kts | 69° |
| 2026-04-30 05:59 | 14.46710 | 102.85703 | 30079 ft | 523 kts | 69° |
| 2026-04-30 06:00 | 14.47990 | 102.89242 | 30259 ft | 525 kts | 69° |
| 2026-04-30 06:00 | 14.49265 | 102.92781 | 30449 ft | 527 kts | 69° |
| 2026-04-30 06:00 | 14.50542 | 102.96330 | 30643 ft | 528 kts | 69° |
| 2026-04-30 06:00 | 14.51822 | 102.99890 | 30838 ft | 530 kts | 69° |
| 2026-04-30 06:01 | 14.53107 | 103.03464 | 31067 ft | 531 kts | 69° |
| 2026-04-30 06:01 | 14.54373 | 103.06988 | 31374 ft | 530 kts | 69° |
| 2026-04-30 06:01 | 14.55657 | 103.10561 | 31684 ft | 529 kts | 69° |
| 2026-04-30 06:01 | 14.56934 | 103.14114 | 31968 ft | 529 kts | 69° |
| 2026-04-30 06:02 | 14.58213 | 103.17676 | 32274 ft | 528 kts | 68° |
| 2026-04-30 06:02 | 14.59491 | 103.21237 | 32570 ft | 528 kts | 68° |
| 2026-04-30 06:02 | 14.60766 | 103.24790 | 32894 ft | 527 kts | 68° |
| 2026-04-30 06:02 | 14.62039 | 103.28341 | 33219 ft | 527 kts | 68° |
| 2026-04-30 06:03 | 14.63308 | 103.31881 | 33550 ft | 526 kts | 68° |
| 2026-04-30 06:03 | 14.64578 | 103.35425 | 33874 ft | 526 kts | 68° |
| 2026-04-30 06:03 | 14.65844 | 103.38961 | 34173 ft | 525 kts | 68° |
| 2026-04-30 06:03 | 14.67110 | 103.42498 | 34487 ft | 524 kts | 68° |
| 2026-04-30 06:04 | 14.68371 | 103.46024 | 34838 ft | 523 kts | 68° |
| 2026-04-30 06:04 | 14.69630 | 103.49545 | 35167 ft | 522 kts | 68° |
| 2026-04-30 06:04 | 14.70885 | 103.53056 | 35494 ft | 520 kts | 68° |
| 2026-04-30 06:05 | 14.73384 | 103.60057 | 36178 ft | 518 kts | 68° |
| 2026-04-30 06:05 | 14.74614 | 103.63506 | 36491 ft | 517 kts | 68° |
| 2026-04-30 06:05 | 14.75857 | 103.66992 | 36849 ft | 516 kts | 68° |
| 2026-04-30 06:05 | 14.77096 | 103.70471 | 37175 ft | 515 kts | 68° |
| 2026-04-30 06:06 | 14.78329 | 103.73934 | 37521 ft | 513 kts | 68° |
| 2026-04-30 06:06 | 14.79559 | 103.77391 | 37861 ft | 512 kts | 68° |
| 2026-04-30 06:06 | 14.80786 | 103.80844 | 38198 ft | 510 kts | 68° |
| 2026-04-30 06:06 | 14.81991 | 103.84289 | 38525 ft | 509 kts | 69° |
| 2026-04-30 06:07 | 14.83184 | 103.87741 | 38789 ft | 508 kts | 69° |
| 2026-04-30 06:07 | 14.84373 | 103.91195 | 38931 ft | 510 kts | 69° |
| 2026-04-30 06:07 | 14.85544 | 103.94601 | 38949 ft | 510 kts | 69° |
| 2026-04-30 06:08 | 14.87926 | 104.01519 | 38948 ft | 511 kts | 69° |
| 2026-04-30 06:08 | 14.90315 | 104.08445 | 38951 ft | 511 kts | 69° |
| 2026-04-30 06:09 | 14.92701 | 104.15364 | 38949 ft | 511 kts | 69° |
| 2026-04-30 06:09 | 14.95084 | 104.22283 | 38952 ft | 511 kts | 69° |
| 2026-04-30 06:10 | 14.97470 | 104.29217 | 38950 ft | 512 kts | 69° |
| 2026-04-30 06:10 | 14.99856 | 104.36161 | 38951 ft | 513 kts | 69° |
| 2026-04-30 06:11 | 15.02245 | 104.43122 | 38952 ft | 513 kts | 69° |
| 2026-04-30 06:11 | 15.04636 | 104.50097 | 38955 ft | 514 kts | 69° |
| 2026-04-30 06:12 | 15.07025 | 104.57071 | 38953 ft | 515 kts | 69° |
| 2026-04-30 06:12 | 15.09414 | 104.64055 | 38952 ft | 515 kts | 69° |
| 2026-04-30 06:13 | 15.11788 | 104.71003 | 38944 ft | 515 kts | 69° |
| 2026-04-30 06:13 | 15.14170 | 104.77981 | 38943 ft | 515 kts | 69° |
| 2026-04-30 06:14 | 15.16556 | 104.84977 | 38939 ft | 515 kts | 69° |
| 2026-04-30 06:14 | 15.18938 | 104.91971 | 38938 ft | 515 kts | 69° |
| 2026-04-30 06:15 | 15.21324 | 104.98986 | 38939 ft | 515 kts | 69° |
| 2026-04-30 06:15 | 15.23692 | 105.05955 | 38939 ft | 515 kts | 69° |
| 2026-04-30 06:16 | 15.26075 | 105.12974 | 38942 ft | 516 kts | 69° |
| 2026-04-30 06:16 | 15.28451 | 105.19983 | 38936 ft | 516 kts | 69° |
| 2026-04-30 06:17 | 15.30830 | 105.27006 | 38930 ft | 516 kts | 69° |
| 2026-04-30 06:17 | 15.33205 | 105.34028 | 38931 ft | 516 kts | 69° |
| 2026-04-30 06:18 | 15.35562 | 105.41004 | 38923 ft | 516 kts | 69° |
| 2026-04-30 06:18 | 15.37935 | 105.48035 | 38919 ft | 516 kts | 70° |
| 2026-04-30 06:19 | 15.40299 | 105.55047 | 38916 ft | 516 kts | 70° |
| 2026-04-30 06:19 | 15.42393 | 105.62167 | 38917 ft | 516 kts | 75° |
| 2026-04-30 06:20 | 15.44055 | 105.69394 | 38913 ft | 515 kts | 76° |
| 2026-04-30 06:20 | 15.45650 | 105.76635 | 38913 ft | 515 kts | 76° |
| 2026-04-30 06:21 | 15.47246 | 105.83885 | 38915 ft | 516 kts | 76° |
| 2026-04-30 06:21 | 15.48846 | 105.91114 | 38915 ft | 518 kts | 76° |
| 2026-04-30 06:22 | 15.50463 | 105.98407 | 38919 ft | 519 kts | 76° |
| 2026-04-30 06:22 | 15.52085 | 106.05729 | 38920 ft | 521 kts | 76° |
| 2026-04-30 06:23 | 15.53708 | 106.13072 | 38925 ft | 523 kts | 76° |
| 2026-04-30 06:23 | 15.55335 | 106.20446 | 38922 ft | 524 kts | 76° |
| 2026-04-30 06:24 | 15.56950 | 106.27781 | 38929 ft | 525 kts | 76° |
| 2026-04-30 06:24 | 15.58576 | 106.35176 | 38921 ft | 526 kts | 76° |
| 2026-04-30 06:25 | 15.60202 | 106.42586 | 38920 ft | 527 kts | 76° |
| 2026-04-30 06:25 | 15.61554 | 106.48752 | 38918 ft | 527 kts | 76° |
| 2026-04-30 06:26 | 15.63179 | 106.56179 | 38922 ft | 527 kts | 76° |
| 2026-04-30 06:26 | 15.64802 | 106.63612 | 38928 ft | 528 kts | 76° |
| 2026-04-30 06:27 | 15.66422 | 106.71041 | 38927 ft | 528 kts | 76° |
| 2026-04-30 06:27 | 15.68033 | 106.78438 | 38938 ft | 528 kts | 76° |
| 2026-04-30 06:28 | 15.69649 | 106.85875 | 38954 ft | 528 kts | 76° |
| 2026-04-30 06:28 | 15.71261 | 106.93305 | 38967 ft | 528 kts | 76° |
| 2026-04-30 06:29 | 15.72874 | 107.00749 | 38979 ft | 528 kts | 76° |
| 2026-04-30 06:29 | 15.74482 | 107.08188 | 38992 ft | 528 kts | 76° |
| 2026-04-30 06:30 | 15.76087 | 107.15621 | 39002 ft | 528 kts | 76° |
| 2026-04-30 06:30 | 15.77788 | 107.23000 | 39007 ft | 527 kts | 73° |
| 2026-04-30 06:31 | 15.79948 | 107.30283 | 39014 ft | 527 kts | 71° |
| 2026-04-30 06:31 | 15.82163 | 107.37535 | 39011 ft | 527 kts | 71° |
| 2026-04-30 06:32 | 15.84303 | 107.44806 | 39014 ft | 526 kts | 72° |
| 2026-04-30 06:32 | 15.86392 | 107.52073 | 39010 ft | 527 kts | 72° |
| 2026-04-30 06:33 | 15.88476 | 107.59370 | 39006 ft | 527 kts | 72° |
| 2026-04-30 06:33 | 15.90560 | 107.66666 | 39003 ft | 527 kts | 72° |
| 2026-04-30 06:34 | 15.92589 | 107.73987 | 38997 ft | 527 kts | 73° |
| 2026-04-30 06:34 | 15.94564 | 107.81310 | 38997 ft | 527 kts | 73° |
| 2026-04-30 06:35 | 15.96548 | 107.88650 | 38992 ft | 526 kts | 73° |
| 2026-04-30 06:35 | 15.98568 | 107.95970 | 38989 ft | 526 kts | 72° |
| 2026-04-30 06:36 | 16.00622 | 108.03225 | 38988 ft | 526 kts | 72° |
| 2026-04-30 06:36 | 16.02682 | 108.10526 | 38994 ft | 526 kts | 72° |
| 2026-04-30 06:37 | 16.04814 | 108.17808 | 38989 ft | 526 kts | 68° |
| 2026-04-30 06:37 | 16.08247 | 108.24471 | 38994 ft | 521 kts | 55° |
| 2026-04-30 06:38 | 16.12265 | 108.30755 | 38968 ft | 521 kts | 53° |
| 2026-04-30 06:38 | 16.16328 | 108.36937 | 38971 ft | 521 kts | 53° |
| 2026-04-30 06:39 | 16.20402 | 108.43181 | 38972 ft | 521 kts | 53° |
| 2026-04-30 06:39 | 16.24446 | 108.49432 | 38977 ft | 521 kts | 53° |
| 2026-04-30 06:40 | 16.28487 | 108.55699 | 38976 ft | 521 kts | 54° |
| 2026-04-30 06:40 | 16.32523 | 108.61964 | 38978 ft | 521 kts | 54° |
| 2026-04-30 06:41 | 16.36560 | 108.68231 | 38974 ft | 521 kts | 53° |
| 2026-04-30 06:41 | 16.40680 | 108.74438 | 38974 ft | 520 kts | 52° |
| 2026-04-30 06:42 | 16.44816 | 108.80577 | 38974 ft | 520 kts | 52° |
| 2026-04-30 06:42 | 16.48966 | 108.86768 | 38972 ft | 521 kts | 53° |
| 2026-04-30 06:43 | 16.53102 | 108.92972 | 38971 ft | 521 kts | 53° |
| 2026-04-30 06:43 | 16.57219 | 108.99172 | 38969 ft | 521 kts | 53° |
| 2026-04-30 06:44 | 16.61294 | 109.05431 | 38968 ft | 521 kts | 54° |
| 2026-04-30 06:44 | 16.65339 | 109.11691 | 38966 ft | 521 kts | 54° |
| 2026-04-30 06:45 | 16.69374 | 109.17927 | 38965 ft | 521 kts | 53° |
| 2026-04-30 06:45 | 16.73434 | 109.24192 | 38966 ft | 521 kts | 53° |
| 2026-04-30 06:46 | 16.77496 | 109.30464 | 38966 ft | 521 kts | 53° |
| 2026-04-30 06:46 | 16.81549 | 109.36727 | 38966 ft | 520 kts | 54° |
| 2026-04-30 06:47 | 16.85596 | 109.42986 | 38966 ft | 520 kts | 54° |
| 2026-04-30 06:47 | 16.89620 | 109.49203 | 38964 ft | 520 kts | 54° |
| 2026-04-30 06:48 | 16.93672 | 109.55464 | 38962 ft | 520 kts | 54° |
| 2026-04-30 06:48 | 16.97715 | 109.61719 | 38964 ft | 519 kts | 54° |
| 2026-04-30 06:49 | 17.01757 | 109.67981 | 38963 ft | 519 kts | 54° |
| 2026-04-30 06:49 | 17.05793 | 109.74239 | 38965 ft | 519 kts | 54° |
| 2026-04-30 06:50 | 17.09826 | 109.80498 | 38966 ft | 519 kts | 54° |
| 2026-04-30 06:50 | 17.13855 | 109.86757 | 38963 ft | 518 kts | 54° |
| 2026-04-30 06:51 | 17.17879 | 109.93013 | 38965 ft | 518 kts | 54° |
| 2026-04-30 06:51 | 17.21872 | 109.99227 | 38962 ft | 518 kts | 54° |
| 2026-04-30 06:52 | 17.25886 | 110.05480 | 38964 ft | 518 kts | 54° |
| 2026-04-30 06:52 | 17.29902 | 110.11740 | 38960 ft | 518 kts | 54° |
| 2026-04-30 06:53 | 17.33909 | 110.17993 | 38959 ft | 517 kts | 54° |
| 2026-04-30 06:53 | 17.37917 | 110.24253 | 38962 ft | 517 kts | 54° |
| 2026-04-30 06:54 | 17.41920 | 110.30512 | 38962 ft | 517 kts | 54° |
| 2026-04-30 06:54 | 17.45951 | 110.36763 | 38963 ft | 517 kts | 53° |
| 2026-04-30 06:55 | 17.49985 | 110.42949 | 38961 ft | 517 kts | 53° |
| 2026-04-30 06:55 | 17.54039 | 110.49179 | 38961 ft | 517 kts | 53° |
| 2026-04-30 06:56 | 17.58076 | 110.55404 | 38962 ft | 516 kts | 54° |
| 2026-04-30 06:56 | 17.62093 | 110.61611 | 38961 ft | 516 kts | 54° |
| 2026-04-30 06:57 | 17.66125 | 110.67847 | 38964 ft | 516 kts | 54° |
| 2026-04-30 06:57 | 17.70153 | 110.74082 | 38967 ft | 516 kts | 54° |
| 2026-04-30 06:58 | 17.74183 | 110.80326 | 38966 ft | 516 kts | 54° |
| 2026-04-30 06:58 | 17.78186 | 110.86534 | 38968 ft | 517 kts | 54° |
| 2026-04-30 06:59 | 17.82216 | 110.92789 | 38967 ft | 517 kts | 54° |
| 2026-04-30 06:59 | 17.86246 | 110.99050 | 38962 ft | 517 kts | 54° |
| 2026-04-30 07:00 | 17.90278 | 111.05320 | 38965 ft | 518 kts | 54° |
| 2026-04-30 07:00 | 17.94285 | 111.11558 | 38968 ft | 518 kts | 54° |
| 2026-04-30 07:01 | 17.98313 | 111.17835 | 38967 ft | 518 kts | 54° |
| 2026-04-30 07:01 | 18.02338 | 111.24112 | 38967 ft | 518 kts | 54° |
| 2026-04-30 07:02 | 18.06372 | 111.30410 | 38969 ft | 519 kts | 54° |
| 2026-04-30 07:02 | 18.10407 | 111.36715 | 38970 ft | 519 kts | 54° |
| 2026-04-30 07:03 | 18.14436 | 111.43017 | 38965 ft | 519 kts | 54° |
| 2026-04-30 07:03 | 18.18467 | 111.49328 | 38967 ft | 520 kts | 54° |
| 2026-04-30 07:04 | 18.22482 | 111.55621 | 38968 ft | 520 kts | 54° |
| 2026-04-30 07:04 | 18.26512 | 111.61942 | 38968 ft | 520 kts | 54° |
| 2026-04-30 07:05 | 18.32555 | 111.71434 | 38973 ft | 521 kts | 54° |
| 2026-04-30 07:05 | 18.36583 | 111.77769 | 38969 ft | 521 kts | 54° |
| 2026-04-30 07:06 | 18.40585 | 111.84067 | 38972 ft | 521 kts | 54° |
| 2026-04-30 07:06 | 18.44614 | 111.90416 | 38970 ft | 521 kts | 54° |
| 2026-04-30 07:07 | 18.48641 | 111.96767 | 38973 ft | 521 kts | 54° |
| 2026-04-30 07:07 | 18.52666 | 112.03122 | 38974 ft | 522 kts | 54° |
| 2026-04-30 07:08 | 18.56694 | 112.09488 | 38974 ft | 522 kts | 54° |
| 2026-04-30 07:08 | 18.60722 | 112.15860 | 38971 ft | 522 kts | 54° |
| 2026-04-30 07:09 | 18.64751 | 112.22241 | 38973 ft | 522 kts | 54° |
| 2026-04-30 07:09 | 18.68389 | 112.28899 | 38971 ft | 525 kts | 60° |
| 2026-04-30 07:10 | 18.71777 | 112.35663 | 38968 ft | 525 kts | 60° |
| 2026-04-30 07:10 | 18.75156 | 112.42496 | 38976 ft | 525 kts | 60° |
| 2026-04-30 07:11 | 18.78540 | 112.49333 | 38976 ft | 526 kts | 60° |
| 2026-04-30 07:11 | 18.81942 | 112.56188 | 38977 ft | 526 kts | 60° |
| 2026-04-30 07:12 | 18.85321 | 112.63000 | 38972 ft | 527 kts | 60° |
| 2026-04-30 07:12 | 18.88720 | 112.69858 | 38969 ft | 527 kts | 60° |
| 2026-04-30 07:13 | 18.92114 | 112.76718 | 38972 ft | 527 kts | 60° |
| 2026-04-30 07:13 | 18.95510 | 112.83587 | 38974 ft | 527 kts | 60° |
| 2026-04-30 07:14 | 18.98332 | 112.89302 | 38976 ft | 527 kts | 60° |
| 2026-04-30 07:14 | 19.01723 | 112.96176 | 38973 ft | 528 kts | 60° |
| 2026-04-30 07:15 | 19.05114 | 113.03060 | 38974 ft | 528 kts | 60° |
| 2026-04-30 07:15 | 19.08506 | 113.09951 | 38974 ft | 528 kts | 60° |
| 2026-04-30 07:16 | 19.11893 | 113.16843 | 38975 ft | 528 kts | 60° |
| 2026-04-30 07:16 | 19.15284 | 113.23749 | 38974 ft | 529 kts | 60° |
| 2026-04-30 07:17 | 19.18655 | 113.30623 | 38973 ft | 529 kts | 60° |
| 2026-04-30 07:18 | 19.23733 | 113.40994 | 38975 ft | 529 kts | 60° |
| 2026-04-30 07:18 | 19.27113 | 113.47909 | 38974 ft | 529 kts | 60° |
| 2026-04-30 07:19 | 19.30488 | 113.54819 | 38973 ft | 528 kts | 60° |
| 2026-04-30 07:19 | 19.33862 | 113.61734 | 38973 ft | 529 kts | 60° |
| 2026-04-30 07:20 | 19.37233 | 113.68653 | 38970 ft | 529 kts | 60° |
| 2026-04-30 07:20 | 19.40604 | 113.75581 | 38975 ft | 529 kts | 60° |
| 2026-04-30 07:21 | 19.43953 | 113.82470 | 38975 ft | 529 kts | 60° |
| 2026-04-30 07:21 | 19.47319 | 113.89405 | 38974 ft | 528 kts | 60° |
| 2026-04-30 07:22 | 19.52355 | 113.99795 | 38975 ft | 528 kts | 60° |
| 2026-04-30 07:22 | 19.55713 | 114.06733 | 38971 ft | 528 kts | 60° |
| 2026-04-30 07:23 | 19.59046 | 114.13627 | 38974 ft | 528 kts | 60° |
| 2026-04-30 07:23 | 19.62392 | 114.20557 | 38970 ft | 528 kts | 60° |
| 2026-04-30 07:24 | 19.65738 | 114.27495 | 38971 ft | 528 kts | 60° |
| 2026-04-30 07:24 | 19.69086 | 114.34446 | 38975 ft | 528 kts | 60° |
| 2026-04-30 07:25 | 19.72421 | 114.41383 | 38975 ft | 528 kts | 60° |
| 2026-04-30 07:25 | 19.75756 | 114.48330 | 38973 ft | 528 kts | 60° |
| 2026-04-30 07:26 | 19.79074 | 114.55244 | 38973 ft | 528 kts | 60° |
| 2026-04-30 07:26 | 19.82404 | 114.62194 | 38970 ft | 528 kts | 60° |
| 2026-04-30 07:27 | 19.85730 | 114.69145 | 38973 ft | 528 kts | 60° |
| 2026-04-30 07:27 | 19.89053 | 114.76099 | 38970 ft | 528 kts | 60° |
| 2026-04-30 07:28 | 19.92373 | 114.83054 | 38974 ft | 528 kts | 60° |
| 2026-04-30 07:28 | 19.95688 | 114.90009 | 38972 ft | 528 kts | 60° |
| 2026-04-30 07:29 | 19.99010 | 114.96986 | 38971 ft | 528 kts | 60° |
| 2026-04-30 07:29 | 20.02322 | 115.03952 | 38969 ft | 527 kts | 60° |
| 2026-04-30 07:30 | 20.07262 | 115.14358 | 38970 ft | 527 kts | 60° |
| 2026-04-30 07:31 | 20.10568 | 115.21331 | 38971 ft | 527 kts | 60° |
| 2026-04-30 07:31 | 20.13867 | 115.28299 | 38969 ft | 527 kts | 60° |
| 2026-04-30 07:32 | 20.17162 | 115.35269 | 38974 ft | 526 kts | 60° |
| 2026-04-30 07:32 | 20.20448 | 115.42228 | 38960 ft | 526 kts | 61° |
| 2026-04-30 07:33 | 20.23738 | 115.49203 | 38973 ft | 526 kts | 61° |
| 2026-04-30 07:33 | 20.26999 | 115.56119 | 38961 ft | 526 kts | 61° |
| 2026-04-30 07:34 | 20.30284 | 115.63100 | 38976 ft | 526 kts | 61° |
| 2026-04-30 07:34 | 20.33557 | 115.70069 | 38965 ft | 526 kts | 61° |
| 2026-04-30 07:35 | 20.36832 | 115.77047 | 38973 ft | 526 kts | 61° |
| 2026-04-30 07:35 | 20.40082 | 115.83980 | 38968 ft | 526 kts | 61° |
| 2026-04-30 07:36 | 20.43351 | 115.90962 | 38972 ft | 526 kts | 61° |
| 2026-04-30 07:36 | 20.46614 | 115.97940 | 38968 ft | 526 kts | 62° |
| 2026-04-30 07:37 | 20.49879 | 116.04932 | 38967 ft | 526 kts | 62° |
| 2026-04-30 07:37 | 20.53120 | 116.11882 | 38968 ft | 525 kts | 62° |
| 2026-04-30 07:38 | 20.56375 | 116.18869 | 38970 ft | 525 kts | 62° |
| 2026-04-30 07:38 | 20.59622 | 116.25850 | 38971 ft | 525 kts | 62° |
| 2026-04-30 07:39 | 20.62868 | 116.32835 | 38967 ft | 525 kts | 62° |
| 2026-04-30 07:39 | 20.66111 | 116.39824 | 38973 ft | 525 kts | 62° |
| 2026-04-30 07:40 | 20.69354 | 116.46824 | 38969 ft | 525 kts | 62° |
| 2026-04-30 07:40 | 20.72593 | 116.53821 | 38966 ft | 525 kts | 62° |
| 2026-04-30 07:41 | 20.75803 | 116.60766 | 38970 ft | 525 kts | 62° |
| 2026-04-30 07:41 | 20.79034 | 116.67766 | 38971 ft | 524 kts | 62° |
| 2026-04-30 07:42 | 20.82260 | 116.74765 | 38970 ft | 524 kts | 62° |
| 2026-04-30 07:42 | 20.85482 | 116.81763 | 38970 ft | 524 kts | 62° |
| 2026-04-30 07:43 | 20.88707 | 116.88777 | 38966 ft | 524 kts | 62° |
| 2026-04-30 07:43 | 20.91898 | 116.95728 | 38965 ft | 524 kts | 62° |
| 2026-04-30 07:44 | 20.95115 | 117.02740 | 38966 ft | 524 kts | 62° |
| 2026-04-30 07:44 | 20.98326 | 117.09753 | 38964 ft | 525 kts | 62° |
| 2026-04-30 07:45 | 21.01537 | 117.16774 | 38963 ft | 525 kts | 62° |
| 2026-04-30 07:45 | 21.04743 | 117.23792 | 38970 ft | 525 kts | 62° |
| 2026-04-30 07:46 | 21.07948 | 117.30819 | 38967 ft | 525 kts | 62° |
| 2026-04-30 07:46 | 21.11153 | 117.37853 | 38964 ft | 525 kts | 62° |
| 2026-04-30 07:47 | 21.14332 | 117.44842 | 38962 ft | 525 kts | 62° |
| 2026-04-30 07:47 | 21.17117 | 117.52078 | 38970 ft | 527 kts | 73° |
| 2026-04-30 07:48 | 21.19046 | 117.59657 | 38963 ft | 528 kts | 75° |
| 2026-04-30 07:48 | 21.20833 | 117.67287 | 38963 ft | 528 kts | 75° |
| 2026-04-30 07:49 | 21.22611 | 117.74909 | 38963 ft | 527 kts | 75° |
| 2026-04-30 07:49 | 21.24406 | 117.82533 | 38962 ft | 527 kts | 75° |
| 2026-04-30 07:50 | 21.26209 | 117.90158 | 38961 ft | 527 kts | 75° |
| 2026-04-30 07:50 | 21.28012 | 117.97788 | 38961 ft | 528 kts | 75° |
| 2026-04-30 07:51 | 21.29809 | 118.05421 | 38962 ft | 528 kts | 75° |
| 2026-04-30 07:51 | 21.31593 | 118.13012 | 38960 ft | 528 kts | 75° |
| 2026-04-30 07:52 | 21.33385 | 118.20656 | 38960 ft | 528 kts | 76° |
| 2026-04-30 07:52 | 21.35171 | 118.28291 | 38958 ft | 528 kts | 76° |
| 2026-04-30 07:53 | 21.36958 | 118.35946 | 38957 ft | 528 kts | 76° |
| 2026-04-30 07:53 | 21.38738 | 118.43599 | 38958 ft | 528 kts | 76° |
| 2026-04-30 07:54 | 21.40514 | 118.51253 | 38958 ft | 528 kts | 76° |
| 2026-04-30 07:54 | 21.42280 | 118.58865 | 38956 ft | 529 kts | 76° |
| 2026-04-30 07:55 | 21.44054 | 118.66527 | 38957 ft | 529 kts | 76° |
| 2026-04-30 07:55 | 21.45823 | 118.74196 | 38953 ft | 529 kts | 76° |
| 2026-04-30 07:56 | 21.47586 | 118.81853 | 38954 ft | 529 kts | 76° |
| 2026-04-30 07:56 | 21.49350 | 118.89530 | 38953 ft | 529 kts | 76° |
| 2026-04-30 07:57 | 21.51109 | 118.97202 | 38953 ft | 529 kts | 76° |
| 2026-04-30 07:57 | 21.52858 | 119.04849 | 38952 ft | 529 kts | 77° |
| 2026-04-30 07:58 | 21.54611 | 119.12532 | 38952 ft | 530 kts | 77° |
| 2026-04-30 07:58 | 21.56362 | 119.20225 | 38951 ft | 530 kts | 77° |
| 2026-04-30 07:59 | 21.58109 | 119.27917 | 38953 ft | 530 kts | 77° |
| 2026-04-30 07:59 | 21.59857 | 119.35627 | 38953 ft | 530 kts | 77° |
| 2026-04-30 08:00 | 21.62174 | 119.45878 | 38950 ft | 531 kts | 77° |
| 2026-04-30 08:00 | 21.63913 | 119.53592 | 38948 ft | 531 kts | 77° |
| 2026-04-30 08:01 | 21.65648 | 119.61309 | 38952 ft | 531 kts | 77° |
| 2026-04-30 08:01 | 21.67382 | 119.69036 | 38952 ft | 532 kts | 77° |
| 2026-04-30 08:02 | 21.69979 | 119.80641 | 38958 ft | 532 kts | 77° |
| 2026-04-30 08:03 | 21.75340 | 119.95278 | 38951 ft | 532 kts | 50° |
| 2026-04-30 08:03 | 21.77894 | 119.98146 | 38954 ft | 529 kts | 38° |
| 2026-04-30 08:04 | 21.80869 | 120.00443 | 38957 ft | 525 kts | 27° |
| 2026-04-30 08:04 | 21.84160 | 120.02107 | 38956 ft | 520 kts | 16° |
| 2026-04-30 08:04 | 21.87638 | 120.03098 | 38958 ft | 513 kts | 5° |
| 2026-04-30 08:05 | 21.94677 | 120.03168 | 38958 ft | 504 kts | 351° |
| 2026-04-30 08:05 | 22.01746 | 120.03499 | 38960 ft | 511 kts | 2° |
| 2026-04-30 08:06 | 22.08816 | 120.04451 | 38959 ft | 512 kts | 4° |
| 2026-04-30 08:06 | 22.15871 | 120.05543 | 38957 ft | 512 kts | 4° |
| 2026-04-30 08:07 | 22.22874 | 120.06644 | 38951 ft | 512 kts | 4° |
| 2026-04-30 08:07 | 22.29941 | 120.07742 | 38946 ft | 512 kts | 4° |
| 2026-04-30 08:08 | 22.36996 | 120.08829 | 38941 ft | 511 kts | 4° |
| 2026-04-30 08:08 | 22.44042 | 120.09898 | 38932 ft | 511 kts | 4° |
| 2026-04-30 08:09 | 22.51044 | 120.10963 | 38930 ft | 511 kts | 4° |
| 2026-04-30 08:09 | 22.58090 | 120.12040 | 38931 ft | 511 kts | 4° |
| 2026-04-30 08:10 | 22.65140 | 120.13120 | 38931 ft | 510 kts | 4° |
| 2026-04-30 08:10 | 22.72165 | 120.14198 | 38824 ft | 509 kts | 4° |
| 2026-04-30 08:10 | 22.75671 | 120.14737 | 38323 ft | 507 kts | 4° |
| 2026-04-30 08:11 | 22.79160 | 120.15273 | 37688 ft | 506 kts | 4° |
| 2026-04-30 08:11 | 22.82645 | 120.15813 | 37050 ft | 506 kts | 4° |
| 2026-04-30 08:11 | 22.86125 | 120.16354 | 36412 ft | 506 kts | 4° |
| 2026-04-30 08:11 | 22.89615 | 120.16895 | 35752 ft | 506 kts | 4° |
| 2026-04-30 08:12 | 22.93063 | 120.17430 | 35102 ft | 507 kts | 5° |
| 2026-04-30 08:12 | 22.96561 | 120.17974 | 34457 ft | 508 kts | 5° |
| 2026-04-30 08:12 | 23.00064 | 120.18519 | 33759 ft | 509 kts | 5° |
| 2026-04-30 08:12 | 23.03575 | 120.19065 | 32968 ft | 510 kts | 5° |
| 2026-04-30 08:13 | 23.07104 | 120.19614 | 32152 ft | 513 kts | 5° |
| 2026-04-30 08:13 | 23.10641 | 120.20165 | 31360 ft | 515 kts | 5° |
| 2026-04-30 08:13 | 23.14199 | 120.20721 | 30552 ft | 517 kts | 5° |
| 2026-04-30 08:13 | 23.17764 | 120.21208 | 29700 ft | 517 kts | 2° |
| 2026-04-30 08:14 | 23.21350 | 120.21609 | 28850 ft | 517 kts | 2° |
| 2026-04-30 08:14 | 23.24924 | 120.22009 | 28176 ft | 514 kts | 2° |
| 2026-04-30 08:14 | 23.28480 | 120.22418 | 27564 ft | 510 kts | 2° |
| 2026-04-30 08:14 | 23.31987 | 120.22829 | 26978 ft | 505 kts | 2° |
| 2026-04-30 08:15 | 23.35472 | 120.23241 | 26386 ft | 501 kts | 2° |
| 2026-04-30 08:15 | 23.38881 | 120.23646 | 25843 ft | 497 kts | 2° |
| 2026-04-30 08:15 | 23.42312 | 120.24054 | 25270 ft | 493 kts | 2° |
| 2026-04-30 08:15 | 23.45709 | 120.24459 | 24721 ft | 488 kts | 2° |
| 2026-04-30 08:16 | 23.49077 | 120.24861 | 24166 ft | 484 kts | 2° |
| 2026-04-30 08:16 | 23.52410 | 120.25260 | 23611 ft | 480 kts | 2° |
| 2026-04-30 08:16 | 23.55717 | 120.25655 | 22974 ft | 476 kts | 2° |
| 2026-04-30 08:16 | 23.58999 | 120.26047 | 22355 ft | 472 kts | 2° |
| 2026-04-30 08:17 | 23.62247 | 120.26436 | 21748 ft | 467 kts | 2° |
| 2026-04-30 08:17 | 23.65463 | 120.26822 | 21138 ft | 463 kts | 2° |
| 2026-04-30 08:17 | 23.68644 | 120.27207 | 20553 ft | 459 kts | 2° |
| 2026-04-30 08:17 | 23.71784 | 120.27859 | 19949 ft | 460 kts | 11° |
| 2026-04-30 08:18 | 23.74839 | 120.28876 | 19589 ft | 457 kts | 14° |
| 2026-04-30 08:18 | 23.77852 | 120.29938 | 19177 ft | 453 kts | 14° |
| 2026-04-30 08:18 | 23.80844 | 120.30987 | 18589 ft | 451 kts | 13° |
| 2026-04-30 08:18 | 23.83825 | 120.32026 | 17962 ft | 448 kts | 13° |
| 2026-04-30 08:19 | 23.86784 | 120.33054 | 17322 ft | 444 kts | 14° |
| 2026-04-30 08:19 | 23.89675 | 120.34057 | 16697 ft | 440 kts | 14° |
| 2026-04-30 08:19 | 23.92620 | 120.35078 | 16082 ft | 436 kts | 14° |
| 2026-04-30 08:19 | 23.95458 | 120.36062 | 15502 ft | 432 kts | 14° |
| 2026-04-30 08:20 | 23.98305 | 120.37049 | 14912 ft | 428 kts | 14° |
| 2026-04-30 08:20 | 24.01128 | 120.38029 | 14322 ft | 424 kts | 14° |
| 2026-04-30 08:20 | 24.03929 | 120.39001 | 13712 ft | 421 kts | 14° |
| 2026-04-30 08:20 | 24.06715 | 120.39968 | 13034 ft | 418 kts | 14° |
| 2026-04-30 08:21 | 24.09477 | 120.40928 | 12415 ft | 414 kts | 14° |
| 2026-04-30 08:21 | 24.12216 | 120.41879 | 11836 ft | 411 kts | 14° |
| 2026-04-30 08:21 | 24.14921 | 120.42818 | 11569 ft | 402 kts | 14° |
| 2026-04-30 08:21 | 24.17544 | 120.43733 | 11406 ft | 389 kts | 14° |
| 2026-04-30 08:22 | 24.20075 | 120.44618 | 11185 ft | 376 kts | 14° |
| 2026-04-30 08:22 | 24.22530 | 120.45475 | 11008 ft | 362 kts | 14° |
| 2026-04-30 08:22 | 24.24871 | 120.46293 | 10974 ft | 345 kts | 14° |
| 2026-04-30 08:22 | 24.27099 | 120.47072 | 10971 ft | 327 kts | 14° |
| 2026-04-30 08:23 | 24.29231 | 120.47815 | 10975 ft | 319 kts | 14° |
| 2026-04-30 08:23 | 24.31343 | 120.48547 | 10977 ft | 318 kts | 13° |
| 2026-04-30 08:23 | 24.33450 | 120.49277 | 10978 ft | 318 kts | 14° |
| 2026-04-30 08:23 | 24.35531 | 120.50002 | 10979 ft | 318 kts | 13° |
| 2026-04-30 08:24 | 24.37643 | 120.50737 | 10976 ft | 318 kts | 14° |
| 2026-04-30 08:24 | 24.39752 | 120.51472 | 10975 ft | 318 kts | 13° |
| 2026-04-30 08:24 | 24.41864 | 120.52208 | 10978 ft | 318 kts | 14° |
| 2026-04-30 08:24 | 24.43975 | 120.52948 | 10975 ft | 319 kts | 14° |
| 2026-04-30 08:25 | 24.46089 | 120.53689 | 10973 ft | 319 kts | 14° |
| 2026-04-30 08:25 | 24.48202 | 120.54427 | 10976 ft | 318 kts | 14° |
| 2026-04-30 08:25 | 24.50315 | 120.55166 | 10975 ft | 318 kts | 14° |
| 2026-04-30 08:25 | 24.52434 | 120.55907 | 10971 ft | 318 kts | 14° |
| 2026-04-30 08:26 | 24.54545 | 120.56646 | 10975 ft | 318 kts | 14° |
| 2026-04-30 08:26 | 24.56631 | 120.57376 | 10979 ft | 319 kts | 13° |
| 2026-04-30 08:26 | 24.58771 | 120.58127 | 10964 ft | 319 kts | 13° |
| 2026-04-30 08:26 | 24.60855 | 120.58858 | 10979 ft | 319 kts | 13° |
| 2026-04-30 08:27 | 24.62996 | 120.59609 | 10964 ft | 319 kts | 14° |
| 2026-04-30 08:27 | 24.65086 | 120.60341 | 10967 ft | 319 kts | 13° |
| 2026-04-30 08:27 | 24.67174 | 120.61179 | 10968 ft | 323 kts | 21° |
| 2026-04-30 08:27 | 24.69039 | 120.62603 | 10974 ft | 326 kts | 38° |
| 2026-04-30 08:28 | 24.70709 | 120.64252 | 10694 ft | 321 kts | 40° |
| 2026-04-30 08:28 | 24.72359 | 120.65923 | 10271 ft | 323 kts | 40° |
| 2026-04-30 08:28 | 24.74018 | 120.67587 | 9934 ft | 321 kts | 40° |
| 2026-04-30 08:28 | 24.75670 | 120.69230 | 9552 ft | 319 kts | 40° |
| 2026-04-30 08:29 | 24.77314 | 120.70859 | 9176 ft | 317 kts | 40° |
| 2026-04-30 08:29 | 24.78947 | 120.72471 | 8778 ft | 315 kts | 40° |
| 2026-04-30 08:29 | 24.80558 | 120.74060 | 8402 ft | 313 kts | 40° |
| 2026-04-30 08:29 | 24.82172 | 120.75651 | 8035 ft | 311 kts | 40° |
| 2026-04-30 08:30 | 24.83780 | 120.77236 | 7659 ft | 309 kts | 40° |
| 2026-04-30 08:30 | 24.85372 | 120.78805 | 7309 ft | 306 kts | 40° |
| 2026-04-30 08:30 | 24.86954 | 120.80365 | 6944 ft | 305 kts | 40° |
| 2026-04-30 08:30 | 24.88532 | 120.81921 | 6579 ft | 303 kts | 40° |
| 2026-04-30 08:31 | 24.90094 | 120.83461 | 6212 ft | 300 kts | 40° |
| 2026-04-30 08:31 | 24.91539 | 120.85105 | 6004 ft | 301 kts | 52° |
| 2026-04-30 08:31 | 24.92365 | 120.87224 | 5997 ft | 301 kts | 77° |
| 2026-04-30 08:31 | 24.92744 | 120.89453 | 5994 ft | 299 kts | 82° |
| 2026-04-30 08:32 | 24.93077 | 120.91690 | 5796 ft | 293 kts | 82° |
| 2026-04-30 08:32 | 24.93412 | 120.93836 | 5595 ft | 275 kts | 82° |
| 2026-04-30 08:32 | 24.93739 | 120.95844 | 5377 ft | 258 kts | 82° |
| 2026-04-30 08:32 | 24.94050 | 120.97732 | 5244 ft | 242 kts | 81° |
| 2026-04-30 08:33 | 24.94350 | 120.99518 | 5072 ft | 234 kts | 82° |
| 2026-04-30 08:33 | 24.94637 | 121.01237 | 4944 ft | 223 kts | 81° |
| 2026-04-30 08:33 | 24.94915 | 121.02890 | 4655 ft | 216 kts | 81° |
| 2026-04-30 08:33 | 24.95263 | 121.04508 | 4105 ft | 219 kts | 75° |
| 2026-04-30 08:34 | 24.95775 | 121.06082 | 3587 ft | 217 kts | 68° |
| 2026-04-30 08:34 | 24.96443 | 121.07538 | 3182 ft | 208 kts | 60° |
| 2026-04-30 08:34 | 24.97230 | 121.08785 | 3004 ft | 187 kts | 52° |
| 2026-04-30 08:34 | 24.98042 | 121.09831 | 2859 ft | 176 kts | 49° |
| 2026-04-30 08:35 | 24.98810 | 121.10851 | 2657 ft | 170 kts | 50° |
| 2026-04-30 08:35 | 24.99565 | 121.11811 | 2440 ft | 160 kts | 49° |
| 2026-04-30 08:35 | 25.00279 | 121.12712 | 2218 ft | 152 kts | 50° |
| 2026-04-30 08:35 | 25.00947 | 121.13569 | 2015 ft | 143 kts | 49° |
| 2026-04-30 08:36 | 25.01585 | 121.14381 | 1842 ft | 137 kts | 48° |
| 2026-04-30 08:36 | 25.02203 | 121.15165 | 1665 ft | 135 kts | 47° |
| 2026-04-30 08:36 | 25.02820 | 121.15943 | 1470 ft | 133 kts | 48° |
| 2026-04-30 08:36 | 25.03424 | 121.16709 | 1294 ft | 132 kts | 48° |
| 2026-04-30 08:37 | 25.04020 | 121.17466 | 1119 ft | 130 kts | 48° |
| 2026-04-30 08:37 | 25.04612 | 121.18215 | 954 ft | 129 kts | 47° |
| 2026-04-30 08:37 | 25.05205 | 121.18967 | 804 ft | 132 kts | 46° |
| 2026-04-30 08:37 | 25.05848 | 121.19702 | 655 ft | 133 kts | 44° |
| 2026-04-30 08:38 | 25.06441 | 121.20458 | 408 ft | 127 kts | 49° |
| 2026-04-30 08:38 | 25.07002 | 121.21251 | 269 ft | 134 kts | 49° |
| 2026-04-30 08:38 | 25.07608 | 121.22004 | 121 ft | 128 kts | 48° |
| 2026-04-30 08:38 | 25.08113 | 121.22644 | 108 ft | 76 kts | 48° |
| 2026-04-30 08:39 | 25.08381 | 121.22994 | 106 ft | 45 kts | 59° |
| 2026-04-30 08:39 | 25.08449 | 121.23224 | 107 ft | 15 kts | 79° |
| 2026-04-30 08:39 | 25.08471 | 121.23347 | 107 ft | 17 kts | 79° |
| 2026-04-30 08:39 | 25.08466 | 121.23458 | 107 ft | 12 kts | 122° |
| 2026-04-30 08:40 | 25.08411 | 121.23488 | 107 ft | 9 kts | 188° |
| 2026-04-30 08:40 | 25.08362 | 121.23446 | 107 ft | 9 kts | 225° |
| 2026-04-30 08:40 | 25.08312 | 121.23405 | 107 ft | 5 kts | 191° |
| 2026-04-30 08:40 | 25.08276 | 121.23411 | 107 ft | 5 kts | 165° |
| 2026-04-30 08:41 | 25.08246 | 121.23436 | 107 ft | 7 kts | 141° |
| 2026-04-30 08:41 | 25.08209 | 121.23470 | 107 ft | 0 kts | 139° |
| 2026-04-30 08:41 | 25.08209 | 121.23471 | 107 ft | 0 kts | 139° |